KSTK/STK METAR and TAF weather

Enter ICAO airport designator
Station Type Date Time Source
KSTK METAR 2022/08/12 15:35 UTC NOAA

KSTK 121535Z AUTO 13006KT 10SM CLR 26/12 A3016 RMK AO2


Station Type Date Time Source
KSTK Decoded METAR 2022/08/12 15:35 UTC NOAA

Station name not available
Aug 12, 2022 - 11:35 AM EDT / 2022.08.12 1535 UTC
Wind: from the SE (130 degrees) at 7 MPH (6 KT):0
Visibility: 10 mile(s):0
Sky conditions: clear
Temperature: 78 F (26 C)
Dew Point: 53 F (12 C)
Relative Humidity: 41%
Pressure (altimeter): 30.16 in. Hg (1021 hPa)
ob: KSTK 121535Z AUTO 13006KT 10SM CLR 26/12 A3016 RMK AO2
cycle: 15

Station Type Date Time Source
KSTK TAF UTC NOAA

Error!

Example: see airport list